sensor_id;sensor_type;location;lat;lon;timestamp;P1;durP1;ratioP1;P2;durP2;ratioP2
2173;SDS011;1093;51.424;11.764;2023-06-22T00:00:46;32.17;;;22.97;;
2173;SDS011;1093;51.424;11.764;2023-06-22T00:03:13;33.87;;;23.67;;
2173;SDS011;1093;51.424;11.764;2023-06-22T00:05:40;33.27;;;23.93;;
2173;SDS011;1093;51.424;11.764;2023-06-22T00:08:06;34.53;;;23.10;;
2173;SDS011;1093;51.424;11.764;2023-06-22T00:10:35;32.90;;;24.00;;
2173;SDS011;1093;51.424;11.764;2023-06-22T00:13:01;37.07;;;24.77;;
2173;SDS011;1093;51.424;11.764;2023-06-22T00:15:28;28.93;;;23.30;;
2173;SDS011;1093;51.424;11.764;2023-06-22T00:17:55;33.63;;;23.27;;
2173;SDS011;1093;51.424;11.764;2023-06-22T00:20:24;31.10;;;22.77;;
2173;SDS011;1093;51.424;11.764;2023-06-22T00:22:53;30.20;;;22.37;;
2173;SDS011;1093;51.424;11.764;2023-06-22T00:25:20;32.60;;;22.70;;
2173;SDS011;1093;51.424;11.764;2023-06-22T00:27:49;29.97;;;23.93;;
2173;SDS011;1093;51.424;11.764;2023-06-22T00:30:16;31.27;;;21.40;;
2173;SDS011;1093;51.424;11.764;2023-06-22T00:32:44;32.70;;;21.90;;
2173;SDS011;1093;51.424;11.764;2023-06-22T00:35:12;32.43;;;22.80;;
2173;SDS011;1093;51.424;11.764;2023-06-22T00:37:38;34.47;;;25.60;;
2173;SDS011;1093;51.424;11.764;2023-06-22T00:40:07;34.20;;;24.00;;
2173;SDS011;1093;51.424;11.764;2023-06-22T00:42:36;35.20;;;24.13;;
2173;SDS011;1093;51.424;11.764;2023-06-22T00:45:06;32.60;;;23.83;;
2173;SDS011;1093;51.424;11.764;2023-06-22T00:47:34;30.60;;;22.87;;
2173;SDS011;1093;51.424;11.764;2023-06-22T00:50:02;37.47;;;23.73;;
2173;SDS011;1093;51.424;11.764;2023-06-22T00:52:29;41.30;;;24.43;;
2173;SDS011;1093;51.424;11.764;2023-06-22T00:54:58;38.07;;;25.40;;
2173;SDS011;1093;51.424;11.764;2023-06-22T00:57:27;37.10;;;24.77;;
2173;SDS011;1093;51.424;11.764;2023-06-22T00:59:54;33.20;;;24.53;;
2173;SDS011;1093;51.424;11.764;2023-06-22T01:02:24;33.00;;;23.90;;
2173;SDS011;1093;51.424;11.764;2023-06-22T01:04:51;40.20;;;25.67;;
2173;SDS011;1093;51.424;11.764;2023-06-22T01:07:21;39.57;;;26.30;;
2173;SDS011;1093;51.424;11.764;2023-06-22T01:09:57;34.87;;;25.60;;
2173;SDS011;1093;51.424;11.764;2023-06-22T01:12:27;38.30;;;26.87;;
2173;SDS011;1093;51.424;11.764;2023-06-22T01:15:02;36.83;;;25.10;;
2173;SDS011;1093;51.424;11.764;2023-06-22T01:17:33;36.47;;;26.50;;
2173;SDS011;1093;51.424;11.764;2023-06-22T01:20:02;32.33;;;23.53;;
2173;SDS011;1093;51.424;11.764;2023-06-22T01:22:32;36.67;;;28.17;;
2173;SDS011;1093;51.424;11.764;2023-06-22T01:25:07;34.67;;;25.00;;
2173;SDS011;1093;51.424;11.764;2023-06-22T01:27:39;31.90;;;24.10;;
2173;SDS011;1093;51.424;11.764;2023-06-22T01:30:27;39.43;;;27.40;;
2173;SDS011;1093;51.424;11.764;2023-06-22T01:32:56;40.77;;;25.80;;
2173;SDS011;1093;51.424;11.764;2023-06-22T01:35:24;37.63;;;28.10;;
2173;SDS011;1093;51.424;11.764;2023-06-22T01:37:51;37.17;;;26.03;;
2173;SDS011;1093;51.424;11.764;2023-06-22T01:40:18;34.97;;;26.13;;
2173;SDS011;1093;51.424;11.764;2023-06-22T01:42:46;38.80;;;26.83;;
2173;SDS011;1093;51.424;11.764;2023-06-22T01:45:14;43.03;;;28.13;;
2173;SDS011;1093;51.424;11.764;2023-06-22T01:47:43;41.03;;;25.43;;
2173;SDS011;1093;51.424;11.764;2023-06-22T01:50:10;40.77;;;26.43;;
2173;SDS011;1093;51.424;11.764;2023-06-22T01:52:37;33.70;;;23.87;;
2173;SDS011;1093;51.424;11.764;2023-06-22T01:55:04;37.67;;;27.93;;
2173;SDS011;1093;51.424;11.764;2023-06-22T01:57:32;34.53;;;25.30;;
2173;SDS011;1093;51.424;11.764;2023-06-22T02:00:00;38.80;;;26.03;;
2173;SDS011;1093;51.424;11.764;2023-06-22T02:02:33;36.37;;;26.87;;
2173;SDS011;1093;51.424;11.764;2023-06-22T02:05:07;37.83;;;28.90;;
2173;SDS011;1093;51.424;11.764;2023-06-22T02:07:37;36.60;;;26.40;;
2173;SDS011;1093;51.424;11.764;2023-06-22T02:10:08;37.30;;;25.40;;
2173;SDS011;1093;51.424;11.764;2023-06-22T02:12:38;35.43;;;25.97;;
2173;SDS011;1093;51.424;11.764;2023-06-22T02:15:07;35.40;;;25.10;;
2173;SDS011;1093;51.424;11.764;2023-06-22T02:17:35;36.90;;;26.37;;
2173;SDS011;1093;51.424;11.764;2023-06-22T02:20:02;38.60;;;26.10;;
2173;SDS011;1093;51.424;11.764;2023-06-22T02:22:32;34.87;;;24.83;;
2173;SDS011;1093;51.424;11.764;2023-06-22T02:24:59;39.23;;;27.10;;
2173;SDS011;1093;51.424;11.764;2023-06-22T02:27:25;30.63;;;23.43;;
2173;SDS011;1093;51.424;11.764;2023-06-22T02:29:52;35.20;;;23.80;;
2173;SDS011;1093;51.424;11.764;2023-06-22T02:32:19;36.93;;;24.27;;
2173;SDS011;1093;51.424;11.764;2023-06-22T02:34:46;33.30;;;24.67;;
2173;SDS011;1093;51.424;11.764;2023-06-22T02:37:12;36.40;;;25.47;;
2173;SDS011;1093;51.424;11.764;2023-06-22T02:39:41;37.40;;;25.90;;
2173;SDS011;1093;51.424;11.764;2023-06-22T02:42:08;34.30;;;24.30;;
2173;SDS011;1093;51.424;11.764;2023-06-22T02:44:36;33.53;;;23.20;;
2173;SDS011;1093;51.424;11.764;2023-06-22T02:47:03;33.53;;;23.83;;
2173;SDS011;1093;51.424;11.764;2023-06-22T02:49:30;33.37;;;22.73;;
2173;SDS011;1093;51.424;11.764;2023-06-22T02:51:57;34.13;;;21.17;;
2173;SDS011;1093;51.424;11.764;2023-06-22T02:54:24;34.67;;;23.43;;
2173;SDS011;1093;51.424;11.764;2023-06-22T02:56:53;34.53;;;24.00;;
2173;SDS011;1093;51.424;11.764;2023-06-22T02:59:19;38.70;;;22.93;;
2173;SDS011;1093;51.424;11.764;2023-06-22T03:01:48;32.70;;;22.80;;
2173;SDS011;1093;51.424;11.764;2023-06-22T03:04:15;34.73;;;26.87;;
2173;SDS011;1093;51.424;11.764;2023-06-22T03:06:42;41.57;;;28.33;;
2173;SDS011;1093;51.424;11.764;2023-06-22T03:09:09;40.00;;;27.27;;
2173;SDS011;1093;51.424;11.764;2023-06-22T03:11:36;33.80;;;25.60;;
2173;SDS011;1093;51.424;11.764;2023-06-22T03:14:04;37.43;;;24.87;;
2173;SDS011;1093;51.424;11.764;2023-06-22T03:16:31;36.07;;;25.47;;
2173;SDS011;1093;51.424;11.764;2023-06-22T03:18:58;34.40;;;25.70;;
2173;SDS011;1093;51.424;11.764;2023-06-22T03:21:26;37.13;;;24.97;;
2173;SDS011;1093;51.424;11.764;2023-06-22T03:23:54;38.10;;;24.00;;
2173;SDS011;1093;51.424;11.764;2023-06-22T03:26:20;37.60;;;24.87;;
2173;SDS011;1093;51.424;11.764;2023-06-22T03:28:48;33.17;;;24.80;;
2173;SDS011;1093;51.424;11.764;2023-06-22T03:31:16;39.83;;;24.50;;
2173;SDS011;1093;51.424;11.764;2023-06-22T03:33:46;37.73;;;23.73;;
2173;SDS011;1093;51.424;11.764;2023-06-22T03:36:13;39.77;;;25.77;;
2173;SDS011;1093;51.424;11.764;2023-06-22T03:38:41;43.60;;;25.57;;
2173;SDS011;1093;51.424;11.764;2023-06-22T03:41:08;37.87;;;27.43;;
2173;SDS011;1093;51.424;11.764;2023-06-22T03:43:34;39.30;;;25.80;;
2173;SDS011;1093;51.424;11.764;2023-06-22T03:46:01;38.30;;;27.70;;
2173;SDS011;1093;51.424;11.764;2023-06-22T03:48:29;42.13;;;28.60;;
2173;SDS011;1093;51.424;11.764;2023-06-22T03:50:56;41.63;;;27.47;;
2173;SDS011;1093;51.424;11.764;2023-06-22T03:53:25;42.83;;;30.27;;
2173;SDS011;1093;51.424;11.764;2023-06-22T03:55:52;41.53;;;30.77;;
2173;SDS011;1093;51.424;11.764;2023-06-22T03:58:19;42.13;;;30.67;;
2173;SDS011;1093;51.424;11.764;2023-06-22T04:00:46;37.90;;;29.13;;
2173;SDS011;1093;51.424;11.764;2023-06-22T04:03:14;42.90;;;32.23;;
2173;SDS011;1093;51.424;11.764;2023-06-22T04:05:42;53.57;;;30.17;;
2173;SDS011;1093;51.424;11.764;2023-06-22T04:08:09;50.00;;;31.47;;
2173;SDS011;1093;51.424;11.764;2023-06-22T04:10:36;54.87;;;32.97;;
2173;SDS011;1093;51.424;11.764;2023-06-22T04:13:02;57.83;;;31.60;;
2173;SDS011;1093;51.424;11.764;2023-06-22T04:15:29;44.93;;;31.77;;
2173;SDS011;1093;51.424;11.764;2023-06-22T04:17:56;48.47;;;31.97;;
2173;SDS011;1093;51.424;11.764;2023-06-22T04:20:23;57.70;;;31.30;;
2173;SDS011;1093;51.424;11.764;2023-06-22T04:22:53;47.70;;;32.17;;
2173;SDS011;1093;51.424;11.764;2023-06-22T04:25:20;45.27;;;31.63;;
2173;SDS011;1093;51.424;11.764;2023-06-22T04:27:48;51.77;;;29.90;;
2173;SDS011;1093;51.424;11.764;2023-06-22T04:30:14;47.57;;;31.20;;
2173;SDS011;1093;51.424;11.764;2023-06-22T04:32:42;45.00;;;29.47;;
2173;SDS011;1093;51.424;11.764;2023-06-22T04:35:09;44.97;;;28.37;;
2173;SDS011;1093;51.424;11.764;2023-06-22T04:37:36;61.03;;;30.20;;
2173;SDS011;1093;51.424;11.764;2023-06-22T04:40:07;62.17;;;30.60;;
2173;SDS011;1093;51.424;11.764;2023-06-22T04:42:34;41.63;;;28.13;;
2173;SDS011;1093;51.424;11.764;2023-06-22T04:45:02;55.67;;;32.80;;
2173;SDS011;1093;51.424;11.764;2023-06-22T04:47:30;47.97;;;32.30;;
2173;SDS011;1093;51.424;11.764;2023-06-22T04:49:56;46.70;;;31.20;;
2173;SDS011;1093;51.424;11.764;2023-06-22T04:52:26;49.93;;;32.40;;
2173;SDS011;1093;51.424;11.764;2023-06-22T04:54:56;47.40;;;31.20;;
2173;SDS011;1093;51.424;11.764;2023-06-22T04:57:26;51.50;;;31.20;;
2173;SDS011;1093;51.424;11.764;2023-06-22T04:59:57;45.13;;;31.03;;
2173;SDS011;1093;51.424;11.764;2023-06-22T05:02:36;49.20;;;33.20;;
2173;SDS011;1093;51.424;11.764;2023-06-22T05:05:03;42.80;;;32.50;;
2173;SDS011;1093;51.424;11.764;2023-06-22T05:07:32;43.07;;;29.93;;
2173;SDS011;1093;51.424;11.764;2023-06-22T05:09:59;39.77;;;29.60;;
2173;SDS011;1093;51.424;11.764;2023-06-22T05:12:28;44.23;;;32.10;;
2173;SDS011;1093;51.424;11.764;2023-06-22T05:14:55;50.67;;;33.77;;
2173;SDS011;1093;51.424;11.764;2023-06-22T05:17:22;44.80;;;32.47;;
2173;SDS011;1093;51.424;11.764;2023-06-22T05:19:51;40.43;;;33.00;;
2173;SDS011;1093;51.424;11.764;2023-06-22T05:22:18;43.10;;;32.67;;
2173;SDS011;1093;51.424;11.764;2023-06-22T05:24:45;46.13;;;35.80;;
2173;SDS011;1093;51.424;11.764;2023-06-22T05:27:12;49.97;;;36.50;;
2173;SDS011;1093;51.424;11.764;2023-06-22T05:29:40;50.80;;;37.00;;
2173;SDS011;1093;51.424;11.764;2023-06-22T05:32:07;52.23;;;37.90;;
2173;SDS011;1093;51.424;11.764;2023-06-22T05:34:34;43.53;;;35.47;;
2173;SDS011;1093;51.424;11.764;2023-06-22T05:37:01;42.83;;;33.03;;
2173;SDS011;1093;51.424;11.764;2023-06-22T05:39:28;45.40;;;37.20;;
2173;SDS011;1093;51.424;11.764;2023-06-22T05:41:55;42.47;;;32.17;;
2173;SDS011;1093;51.424;11.764;2023-06-22T05:44:22;44.30;;;31.60;;
2173;SDS011;1093;51.424;11.764;2023-06-22T05:46:50;41.93;;;33.67;;
2173;SDS011;1093;51.424;11.764;2023-06-22T05:49:16;37.40;;;30.73;;
2173;SDS011;1093;51.424;11.764;2023-06-22T05:51:43;43.83;;;33.03;;
2173;SDS011;1093;51.424;11.764;2023-06-22T05:54:10;43.70;;;32.53;;
2173;SDS011;1093;51.424;11.764;2023-06-22T05:56:38;38.73;;;31.00;;
2173;SDS011;1093;51.424;11.764;2023-06-22T05:59:05;42.30;;;30.10;;
2173;SDS011;1093;51.424;11.764;2023-06-22T06:01:32;38.97;;;30.47;;
2173;SDS011;1093;51.424;11.764;2023-06-22T06:04:02;35.93;;;29.03;;
2173;SDS011;1093;51.424;11.764;2023-06-22T06:06:29;32.80;;;27.67;;
2173;SDS011;1093;51.424;11.764;2023-06-22T06:08:56;31.20;;;25.30;;
2173;SDS011;1093;51.424;11.764;2023-06-22T06:11:23;32.23;;;26.63;;
2173;SDS011;1093;51.424;11.764;2023-06-22T06:13:51;33.57;;;25.83;;
2173;SDS011;1093;51.424;11.764;2023-06-22T06:16:17;36.50;;;27.07;;
2173;SDS011;1093;51.424;11.764;2023-06-22T06:18:44;33.87;;;26.20;;
2173;SDS011;1093;51.424;11.764;2023-06-22T06:21:12;32.10;;;25.27;;
2173;SDS011;1093;51.424;11.764;2023-06-22T06:23:39;31.20;;;25.70;;
2173;SDS011;1093;51.424;11.764;2023-06-22T06:26:05;30.80;;;23.90;;
2173;SDS011;1093;51.424;11.764;2023-06-22T06:28:32;28.97;;;22.60;;
2173;SDS011;1093;51.424;11.764;2023-06-22T06:30:59;27.70;;;22.77;;
2173;SDS011;1093;51.424;11.764;2023-06-22T06:33:26;30.30;;;22.47;;
2173;SDS011;1093;51.424;11.764;2023-06-22T06:35:53;30.43;;;24.30;;
2173;SDS011;1093;51.424;11.764;2023-06-22T06:38:22;24.70;;;21.53;;
2173;SDS011;1093;51.424;11.764;2023-06-22T06:40:49;25.53;;;20.67;;
2173;SDS011;1093;51.424;11.764;2023-06-22T06:46:37;28.83;;;22.57;;
2173;SDS011;1093;51.424;11.764;2023-06-22T06:49:04;30.20;;;24.37;;
2173;SDS011;1093;51.424;11.764;2023-06-22T06:51:31;31.90;;;24.67;;
2173;SDS011;1093;51.424;11.764;2023-06-22T06:53:59;30.93;;;24.77;;
2173;SDS011;1093;51.424;11.764;2023-06-22T06:56:26;27.93;;;23.27;;
2173;SDS011;1093;51.424;11.764;2023-06-22T06:58:54;31.67;;;25.43;;
2173;SDS011;1093;51.424;11.764;2023-06-22T07:01:21;30.40;;;24.30;;
2173;SDS011;1093;51.424;11.764;2023-06-22T07:03:48;26.90;;;23.50;;
2173;SDS011;1093;51.424;11.764;2023-06-22T07:06:14;29.23;;;23.90;;
2173;SDS011;1093;51.424;11.764;2023-06-22T07:08:42;28.43;;;22.73;;
2173;SDS011;1093;51.424;11.764;2023-06-22T07:11:10;26.57;;;22.53;;
2173;SDS011;1093;51.424;11.764;2023-06-22T07:13:36;27.60;;;21.50;;
2173;SDS011;1093;51.424;11.764;2023-06-22T07:16:04;26.37;;;20.60;;
2173;SDS011;1093;51.424;11.764;2023-06-22T07:18:30;21.30;;;18.77;;
2173;SDS011;1093;51.424;11.764;2023-06-22T07:27:45;24.53;;;18.90;;
2173;SDS011;1093;51.424;11.764;2023-06-22T07:30:13;22.50;;;17.47;;
2173;SDS011;1093;51.424;11.764;2023-06-22T07:32:40;23.97;;;20.70;;
2173;SDS011;1093;51.424;11.764;2023-06-22T07:35:07;25.60;;;17.90;;
2173;SDS011;1093;51.424;11.764;2023-06-22T07:37:34;21.93;;;18.17;;
2173;SDS011;1093;51.424;11.764;2023-06-22T07:40:01;19.03;;;16.83;;
2173;SDS011;1093;51.424;11.764;2023-06-22T07:42:31;27.47;;;18.57;;
2173;SDS011;1093;51.424;11.764;2023-06-22T07:45:00;28.00;;;17.00;;
2173;SDS011;1093;51.424;11.764;2023-06-22T07:47:28;24.83;;;16.33;;
2173;SDS011;1093;51.424;11.764;2023-06-22T07:49:54;20.30;;;16.40;;
2173;SDS011;1093;51.424;11.764;2023-06-22T07:52:23;23.63;;;15.83;;
2173;SDS011;1093;51.424;11.764;2023-06-22T07:54:50;18.67;;;16.67;;
2173;SDS011;1093;51.424;11.764;2023-06-22T07:57:17;17.70;;;14.60;;
2173;SDS011;1093;51.424;11.764;2023-06-22T07:59:44;20.83;;;16.57;;
2173;SDS011;1093;51.424;11.764;2023-06-22T08:02:13;19.57;;;16.30;;
2173;SDS011;1093;51.424;11.764;2023-06-22T08:04:39;18.10;;;16.20;;
2173;SDS011;1093;51.424;11.764;2023-06-22T08:07:07;21.87;;;16.20;;
2173;SDS011;1093;51.424;11.764;2023-06-22T08:09:34;18.07;;;15.77;;
2173;SDS011;1093;51.424;11.764;2023-06-22T08:12:02;20.90;;;16.40;;
2173;SDS011;1093;51.424;11.764;2023-06-22T08:14:29;18.80;;;15.83;;
2173;SDS011;1093;51.424;11.764;2023-06-22T08:16:56;18.33;;;14.07;;
2173;SDS011;1093;51.424;11.764;2023-06-22T08:19:24;19.33;;;15.23;;
2173;SDS011;1093;51.424;11.764;2023-06-22T08:21:51;18.43;;;15.40;;
2173;SDS011;1093;51.424;11.764;2023-06-22T08:24:18;18.30;;;15.80;;
2173;SDS011;1093;51.424;11.764;2023-06-22T08:26:44;16.27;;;14.47;;
2173;SDS011;1093;51.424;11.764;2023-06-22T08:29:11;18.63;;;14.93;;
2173;SDS011;1093;51.424;11.764;2023-06-22T08:31:38;21.20;;;17.10;;
2173;SDS011;1093;51.424;11.764;2023-06-22T08:34:04;18.47;;;16.13;;
2173;SDS011;1093;51.424;11.764;2023-06-22T08:36:33;20.17;;;14.83;;
2173;SDS011;1093;51.424;11.764;2023-06-22T08:39:06;19.83;;;15.70;;
2173;SDS011;1093;51.424;11.764;2023-06-22T08:41:34;16.57;;;14.67;;
2173;SDS011;1093;51.424;11.764;2023-06-22T08:44:01;15.93;;;13.90;;
2173;SDS011;1093;51.424;11.764;2023-06-22T08:46:29;17.30;;;15.40;;
2173;SDS011;1093;51.424;11.764;2023-06-22T08:48:58;19.63;;;15.33;;
2173;SDS011;1093;51.424;11.764;2023-06-22T08:51:25;17.97;;;13.60;;
2173;SDS011;1093;51.424;11.764;2023-06-22T08:53:54;23.07;;;15.90;;
2173;SDS011;1093;51.424;11.764;2023-06-22T08:56:20;15.10;;;12.03;;
2173;SDS011;1093;51.424;11.764;2023-06-22T08:58:47;25.73;;;15.50;;
2173;SDS011;1093;51.424;11.764;2023-06-22T09:01:14;26.70;;;14.67;;
2173;SDS011;1093;51.424;11.764;2023-06-22T09:03:41;14.83;;;12.70;;
2173;SDS011;1093;51.424;11.764;2023-06-22T09:06:08;19.70;;;15.07;;
2173;SDS011;1093;51.424;11.764;2023-06-22T09:08:35;15.13;;;13.60;;
2173;SDS011;1093;51.424;11.764;2023-06-22T09:11:03;16.37;;;14.77;;
2173;SDS011;1093;51.424;11.764;2023-06-22T09:13:30;16.20;;;14.47;;
2173;SDS011;1093;51.424;11.764;2023-06-22T09:15:57;17.20;;;14.20;;
2173;SDS011;1093;51.424;11.764;2023-06-22T09:18:24;15.63;;;14.13;;
2173;SDS011;1093;51.424;11.764;2023-06-22T09:20:50;15.27;;;12.50;;
2173;SDS011;1093;51.424;11.764;2023-06-22T09:23:17;18.37;;;14.50;;
2173;SDS011;1093;51.424;11.764;2023-06-22T09:25:44;15.07;;;13.47;;
2173;SDS011;1093;51.424;11.764;2023-06-22T09:28:14;15.10;;;13.43;;
2173;SDS011;1093;51.424;11.764;2023-06-22T09:30:42;14.53;;;12.60;;
2173;SDS011;1093;51.424;11.764;2023-06-22T09:33:09;16.17;;;14.20;;
2173;SDS011;1093;51.424;11.764;2023-06-22T09:35:36;12.87;;;11.20;;
2173;SDS011;1093;51.424;11.764;2023-06-22T09:38:03;13.80;;;12.40;;
2173;SDS011;1093;51.424;11.764;2023-06-22T09:40:30;14.63;;;12.67;;
2173;SDS011;1093;51.424;11.764;2023-06-22T09:43:00;16.37;;;13.43;;
2173;SDS011;1093;51.424;11.764;2023-06-22T09:45:28;13.30;;;12.00;;
2173;SDS011;1093;51.424;11.764;2023-06-22T09:47:55;16.60;;;12.30;;
2173;SDS011;1093;51.424;11.764;2023-06-22T09:50:22;13.80;;;12.50;;
2173;SDS011;1093;51.424;11.764;2023-06-22T09:52:49;13.87;;;12.53;;
2173;SDS011;1093;51.424;11.764;2023-06-22T09:55:19;12.90;;;11.43;;
2173;SDS011;1093;51.424;11.764;2023-06-22T09:57:46;11.47;;;10.33;;
2173;SDS011;1093;51.424;11.764;2023-06-22T10:00:15;11.40;;;10.27;;
2173;SDS011;1093;51.424;11.764;2023-06-22T10:02:46;12.90;;;11.20;;
2173;SDS011;1093;51.424;11.764;2023-06-22T10:05:12;13.20;;;11.63;;
2173;SDS011;1093;51.424;11.764;2023-06-22T10:07:39;10.93;;;9.83;;
2173;SDS011;1093;51.424;11.764;2023-06-22T10:10:08;12.13;;;10.40;;
2173;SDS011;1093;51.424;11.764;2023-06-22T10:12:35;10.90;;;9.83;;
2173;SDS011;1093;51.424;11.764;2023-06-22T10:15:02;11.10;;;9.97;;
2173;SDS011;1093;51.424;11.764;2023-06-22T10:17:29;12.50;;;9.10;;
2173;SDS011;1093;51.424;11.764;2023-06-22T10:19:57;11.03;;;9.47;;
2173;SDS011;1093;51.424;11.764;2023-06-22T10:22:25;14.10;;;10.47;;
2173;SDS011;1093;51.424;11.764;2023-06-22T10:24:52;15.13;;;10.43;;
2173;SDS011;1093;51.424;11.764;2023-06-22T10:27:19;11.77;;;10.57;;
2173;SDS011;1093;51.424;11.764;2023-06-22T10:29:45;15.27;;;9.80;;
2173;SDS011;1093;51.424;11.764;2023-06-22T10:32:12;10.70;;;9.70;;
2173;SDS011;1093;51.424;11.764;2023-06-22T10:34:39;11.30;;;10.03;;
2173;SDS011;1093;51.424;11.764;2023-06-22T10:37:07;11.03;;;10.03;;
2173;SDS011;1093;51.424;11.764;2023-06-22T10:39:34;11.40;;;10.33;;
2173;SDS011;1093;51.424;11.764;2023-06-22T10:42:00;10.17;;;9.27;;
2173;SDS011;1093;51.424;11.764;2023-06-22T10:44:27;12.50;;;9.90;;
2173;SDS011;1093;51.424;11.764;2023-06-22T10:46:54;11.20;;;9.23;;
2173;SDS011;1093;51.424;11.764;2023-06-22T10:49:21;10.77;;;9.77;;
2173;SDS011;1093;51.424;11.764;2023-06-22T10:51:48;10.50;;;9.53;;
2173;SDS011;1093;51.424;11.764;2023-06-22T10:54:16;10.63;;;9.53;;
2173;SDS011;1093;51.424;11.764;2023-06-22T10:56:44;11.03;;;8.77;;
2173;SDS011;1093;51.424;11.764;2023-06-22T10:59:11;13.00;;;8.63;;
2173;SDS011;1093;51.424;11.764;2023-06-22T11:01:38;11.03;;;9.63;;
2173;SDS011;1093;51.424;11.764;2023-06-22T11:04:04;9.47;;;8.50;;
2173;SDS011;1093;51.424;11.764;2023-06-22T11:06:31;17.93;;;9.90;;
2173;SDS011;1093;51.424;11.764;2023-06-22T11:08:58;10.30;;;9.13;;
2173;SDS011;1093;51.424;11.764;2023-06-22T11:11:26;10.60;;;8.50;;
2173;SDS011;1093;51.424;11.764;2023-06-22T11:13:53;10.63;;;9.53;;
2173;SDS011;1093;51.424;11.764;2023-06-22T11:16:20;13.47;;;9.63;;
2173;SDS011;1093;51.424;11.764;2023-06-22T11:18:46;12.33;;;9.40;;
2173;SDS011;1093;51.424;11.764;2023-06-22T11:21:13;11.83;;;8.47;;
2173;SDS011;1093;51.424;11.764;2023-06-22T11:23:41;12.33;;;8.47;;
2173;SDS011;1093;51.424;11.764;2023-06-22T11:26:08;10.60;;;9.57;;
2173;SDS011;1093;51.424;11.764;2023-06-22T11:28:36;10.30;;;9.37;;
2173;SDS011;1093;51.424;11.764;2023-06-22T11:31:04;10.30;;;9.40;;
2173;SDS011;1093;51.424;11.764;2023-06-22T11:33:32;11.53;;;10.37;;
2173;SDS011;1093;51.424;11.764;2023-06-22T11:35:59;11.83;;;9.10;;
2173;SDS011;1093;51.424;11.764;2023-06-22T11:38:26;10.80;;;9.70;;
2173;SDS011;1093;51.424;11.764;2023-06-22T11:40:52;11.87;;;9.70;;
2173;SDS011;1093;51.424;11.764;2023-06-22T11:43:19;11.03;;;9.93;;
2173;SDS011;1093;51.424;11.764;2023-06-22T11:45:47;10.03;;;9.07;;
2173;SDS011;1093;51.424;11.764;2023-06-22T11:48:14;9.40;;;8.40;;
2173;SDS011;1093;51.424;11.764;2023-06-22T11:50:41;10.33;;;9.43;;
2173;SDS011;1093;51.424;11.764;2023-06-22T11:53:08;11.47;;;9.70;;
2173;SDS011;1093;51.424;11.764;2023-06-22T11:55:35;9.23;;;8.43;;
2173;SDS011;1093;51.424;11.764;2023-06-22T11:58:01;9.83;;;8.90;;
2173;SDS011;1093;51.424;11.764;2023-06-22T12:00:30;10.73;;;9.60;;
2173;SDS011;1093;51.424;11.764;2023-06-22T12:02:58;11.00;;;9.90;;
2173;SDS011;1093;51.424;11.764;2023-06-22T12:05:25;10.70;;;9.60;;
2173;SDS011;1093;51.424;11.764;2023-06-22T12:07:53;11.07;;;9.53;;
2173;SDS011;1093;51.424;11.764;2023-06-22T12:10:20;11.30;;;10.07;;
2173;SDS011;1093;51.424;11.764;2023-06-22T12:12:47;11.83;;;9.53;;
2173;SDS011;1093;51.424;11.764;2023-06-22T12:15:14;13.90;;;9.70;;
2173;SDS011;1093;51.424;11.764;2023-06-22T12:17:41;11.53;;;10.40;;
2173;SDS011;1093;51.424;11.764;2023-06-22T12:20:09;11.70;;;9.10;;
2173;SDS011;1093;51.424;11.764;2023-06-22T12:22:37;10.00;;;9.10;;
2173;SDS011;1093;51.424;11.764;2023-06-22T12:25:04;11.40;;;9.70;;
2173;SDS011;1093;51.424;11.764;2023-06-22T12:27:31;11.23;;;10.10;;
2173;SDS011;1093;51.424;11.764;2023-06-22T12:29:58;12.10;;;9.10;;
2173;SDS011;1093;51.424;11.764;2023-06-22T12:32:24;11.10;;;8.90;;
2173;SDS011;1093;51.424;11.764;2023-06-22T12:34:51;10.40;;;9.40;;
2173;SDS011;1093;51.424;11.764;2023-06-22T12:37:19;12.03;;;10.87;;
2173;SDS011;1093;51.424;11.764;2023-06-22T12:39:46;11.00;;;9.73;;
2173;SDS011;1093;51.424;11.764;2023-06-22T12:42:13;10.87;;;9.77;;
2173;SDS011;1093;51.424;11.764;2023-06-22T12:44:39;11.00;;;10.00;;
2173;SDS011;1093;51.424;11.764;2023-06-22T12:47:06;13.30;;;9.40;;
2173;SDS011;1093;51.424;11.764;2023-06-22T12:49:33;11.80;;;9.33;;
2173;SDS011;1093;51.424;11.764;2023-06-22T12:52:00;12.70;;;10.17;;
2173;SDS011;1093;51.424;11.764;2023-06-22T12:54:28;11.37;;;10.17;;
2173;SDS011;1093;51.424;11.764;2023-06-22T12:56:55;11.27;;;10.00;;
2173;SDS011;1093;51.424;11.764;2023-06-22T12:59:22;10.20;;;9.10;;
2173;SDS011;1093;51.424;11.764;2023-06-22T13:01:49;10.23;;;9.17;;
2173;SDS011;1093;51.424;11.764;2023-06-22T13:04:16;9.87;;;9.00;;
2173;SDS011;1093;51.424;11.764;2023-06-22T13:06:43;14.10;;;10.23;;
2173;SDS011;1093;51.424;11.764;2023-06-22T13:09:12;10.70;;;9.67;;
2173;SDS011;1093;51.424;11.764;2023-06-22T13:11:41;10.20;;;9.20;;
2173;SDS011;1093;51.424;11.764;2023-06-22T13:14:08;11.20;;;10.10;;
2173;SDS011;1093;51.424;11.764;2023-06-22T13:16:35;10.70;;;9.70;;
2173;SDS011;1093;51.424;11.764;2023-06-22T13:19:01;12.93;;;11.17;;
2173;SDS011;1093;51.424;11.764;2023-06-22T13:21:29;11.70;;;10.60;;
2173;SDS011;1093;51.424;11.764;2023-06-22T13:23:56;10.77;;;9.77;;
2173;SDS011;1093;51.424;11.764;2023-06-22T13:26:23;11.13;;;10.07;;
2173;SDS011;1093;51.424;11.764;2023-06-22T13:28:52;12.03;;;10.60;;
2173;SDS011;1093;51.424;11.764;2023-06-22T13:31:19;10.80;;;9.87;;
2173;SDS011;1093;51.424;11.764;2023-06-22T13:33:45;11.57;;;10.40;;
2173;SDS011;1093;51.424;11.764;2023-06-22T13:36:13;10.70;;;9.67;;
2173;SDS011;1093;51.424;11.764;2023-06-22T13:38:40;11.00;;;9.90;;
2173;SDS011;1093;51.424;11.764;2023-06-22T13:41:07;11.00;;;9.90;;
2173;SDS011;1093;51.424;11.764;2023-06-22T13:43:33;11.10;;;10.00;;
2173;SDS011;1093;51.424;11.764;2023-06-22T13:46:02;11.93;;;10.80;;
2173;SDS011;1093;51.424;11.764;2023-06-22T13:48:28;12.10;;;10.30;;
2173;SDS011;1093;51.424;11.764;2023-06-22T13:50:55;12.07;;;9.97;;
2173;SDS011;1093;51.424;11.764;2023-06-22T13:53:24;11.63;;;10.53;;
2173;SDS011;1093;51.424;11.764;2023-06-22T13:55:51;11.53;;;10.53;;
2173;SDS011;1093;51.424;11.764;2023-06-22T13:58:17;12.13;;;10.90;;
2173;SDS011;1093;51.424;11.764;2023-06-22T14:00:45;12.70;;;11.40;;
2173;SDS011;1093;51.424;11.764;2023-06-22T14:03:13;11.20;;;10.13;;
2173;SDS011;1093;51.424;11.764;2023-06-22T14:05:41;11.50;;;10.40;;
2173;SDS011;1093;51.424;11.764;2023-06-22T14:08:08;12.17;;;10.30;;
2173;SDS011;1093;51.424;11.764;2023-06-22T14:10:35;12.07;;;9.73;;
2173;SDS011;1093;51.424;11.764;2023-06-22T14:13:02;11.97;;;10.60;;
2173;SDS011;1093;51.424;11.764;2023-06-22T14:15:30;11.57;;;10.50;;
2173;SDS011;1093;51.424;11.764;2023-06-22T14:17:57;10.97;;;9.93;;
2173;SDS011;1093;51.424;11.764;2023-06-22T14:20:26;11.53;;;10.43;;
2173;SDS011;1093;51.424;11.764;2023-06-22T14:23:22;12.37;;;10.87;;
2173;SDS011;1093;51.424;11.764;2023-06-22T14:25:50;11.63;;;10.43;;
2173;SDS011;1093;51.424;11.764;2023-06-22T14:28:16;11.40;;;10.20;;
2173;SDS011;1093;51.424;11.764;2023-06-22T14:30:43;14.53;;;9.93;;
2173;SDS011;1093;51.424;11.764;2023-06-22T14:33:10;13.13;;;10.37;;
2173;SDS011;1093;51.424;11.764;2023-06-22T14:35:39;11.93;;;10.73;;
2173;SDS011;1093;51.424;11.764;2023-06-22T14:38:06;11.50;;;10.30;;
2173;SDS011;1093;51.424;11.764;2023-06-22T14:40:32;12.43;;;11.10;;
2173;SDS011;1093;51.424;11.764;2023-06-22T14:42:59;11.17;;;10.17;;
2173;SDS011;1093;51.424;11.764;2023-06-22T14:45:26;13.33;;;11.83;;
2173;SDS011;1093;51.424;11.764;2023-06-22T14:47:53;10.60;;;9.60;;
2173;SDS011;1093;51.424;11.764;2023-06-22T14:50:20;12.07;;;10.40;;